Time;durP1;ratioP1;P1;durP2;ratioP2;P2;SDS_P1;SDS_P2;PMS_P1;PMS_P2;Temp;Humidity;BMP_temperature;BMP_pressure;BME280_temperature;BME280_humidity;BME280_pressure;Samples;Min_cycle;Max_cycle;Signal;HPM_P1;HPM_P2
2021/12/02 00:01:42;;;;;;;9.03;4.85;;;;;;;-0.22;58.38;98167.83;1707264;83;21316;-41
2021/12/02 00:04:09;;;;;;;6.72;4.65;;;;;;;-0.20;58.69;98164.31;1707207;83;20981;-41
2021/12/02 00:06:36;;;;;;;11.45;4.50;;;;;;;-0.24;58.63;98163.38;1708713;83;21533;-41
2021/12/02 00:09:04;;;;;;;11.55;5.05;;;;;;;-0.25;58.72;98163.14;1712916;83;21077;-42
2021/12/02 00:11:30;;;;;;;10.15;4.90;;;;;;;-0.28;58.88;98159.77;1712654;83;21049;-41
2021/12/02 00:14:00;;;;;;;8.85;4.78;;;;;;;-0.24;58.86;98158.06;1713033;83;21127;-41
2021/12/02 00:16:53;;;;;;;10.15;4.53;;;;;;;-0.23;58.88;98158.27;1712755;83;20981;-41
2021/12/02 00:22:00;;;;;;;8.18;4.85;;;;;;;-0.17;59.24;98149.02;1713116;83;21038;-41
2021/12/02 00:24:24;;;;;;;11.97;5.30;;;;;;;-0.14;59.46;98135.05;1663733;83;21057;-41
2021/12/02 00:26:52;;;;;;;8.53;5.35;;;;;;;-0.11;59.75;98137.88;1713155;83;21160;-41
2021/12/02 00:29:21;;;;;;;9.80;5.70;;;;;;;-0.09;60.08;98141.53;1712905;83;21587;-41
2021/12/02 00:31:51;;;;;;;8.73;5.90;;;;;;;-0.06;60.39;98143.03;1713497;83;23979;-41
2021/12/02 00:34:20;;;;;;;9.68;5.97;;;;;;;-0.06;60.60;98135.04;1712863;83;21048;-41
2021/12/02 00:36:46;;;;;;;12.63;6.20;;;;;;;-0.04;60.99;98136.81;1713175;83;21061;-42
2021/12/02 00:39:16;;;;;;;11.80;6.72;;;;;;;-0.03;61.29;98128.28;1713019;83;21846;-41
2021/12/02 00:41:43;;;;;;;10.98;6.35;;;;;;;0.01;61.43;98134.52;1723022;83;21060;-42
2021/12/02 00:44:09;;;;;;;10.68;7.12;;;;;;;0.05;61.81;98116.03;1723538;83;20949;-41
2021/12/02 00:46:36;;;;;;;11.50;6.50;;;;;;;0.06;61.92;98108.25;1723775;82;21579;-41
2021/12/02 00:49:10;;;;;;;12.68;7.15;;;;;;;0.07;62.18;98113.27;1723698;82;20985;-42
2021/12/02 00:51:36;;;;;;;12.88;7.28;;;;;;;0.09;62.38;98114.29;1723924;83;21106;-42
2021/12/02 00:54:08;;;;;;;13.03;7.37;;;;;;;0.06;62.75;98106.92;1723647;82;21009;-42
2021/12/02 00:56:37;;;;;;;10.88;7.00;;;;;;;0.07;62.92;98109.27;1723652;83;21036;-42
2021/12/02 00:59:05;;;;;;;10.63;6.67;;;;;;;0.08;63.22;98098.06;1723638;83;21668;-42
2021/12/02 01:01:36;;;;;;;13.93;7.95;;;;;;;0.12;63.26;98084.33;1723904;83;21028;-41
2021/12/02 01:04:12;;;;;;;10.25;7.17;;;;;;;0.14;63.40;98085.58;1723537;83;21779;-41
2021/12/02 01:06:39;;;;;;;11.28;7.20;;;;;;;0.18;63.55;98081.72;1722680;82;21556;-42
2021/12/02 01:09:08;;;;;;;10.98;8.05;;;;;;;0.18;63.74;98078.50;1718142;83;21582;-41
2021/12/02 01:11:35;;;;;;;12.78;8.28;;;;;;;0.19;63.90;98069.41;1717872;83;21073;-41
2021/12/02 01:14:03;;;;;;;10.63;8.20;;;;;;;0.19;64.16;98073.95;1718059;83;21025;-41
2021/12/02 01:16:30;;;;;;;12.07;8.63;;;;;;;0.21;64.31;98076.52;1717843;83;21136;-41
2021/12/02 01:18:57;;;;;;;13.00;8.70;;;;;;;0.26;64.34;98075.00;1717973;83;21613;-41
2021/12/02 01:21:25;;;;;;;13.32;8.55;;;;;;;0.30;64.43;98069.24;1718040;83;21093;-41
2021/12/02 01:24:01;;;;;;;14.63;8.73;;;;;;;0.37;64.48;98069.52;1718398;83;21060;-41
2021/12/02 01:26:31;;;;;;;13.60;9.30;;;;;;;0.38;64.62;98068.42;1717952;83;21548;-41
2021/12/02 01:28:58;;;;;;;11.83;8.80;;;;;;;0.42;64.63;98065.34;1718255;83;21827;-41
2021/12/02 01:31:31;;;;;;;14.60;9.58;;;;;;;0.43;64.77;98057.58;1699386;83;21317;-41
2021/12/02 01:34:06;;;;;;;14.07;9.75;;;;;;;0.49;64.87;98058.13;1681711;85;21099;-41
2021/12/02 01:36:34;;;;;;;11.35;8.95;;;;;;;0.48;65.06;98054.48;1681494;85;21057;-41
2021/12/02 01:39:01;;;;;;;13.68;10.10;;;;;;;0.52;65.15;98046.84;1681565;85;21086;-41
2021/12/02 01:41:27;;;;;;;14.28;10.38;;;;;;;0.54;65.18;98039.28;1681447;85;22375;-41
2021/12/02 01:43:54;;;;;;;13.70;10.00;;;;;;;0.58;65.24;98040.77;1695067;83;21538;-41
2021/12/02 01:46:25;;;;;;;13.03;9.85;;;;;;;0.61;65.23;98037.44;1710188;83;21077;-41
2021/12/02 01:49:03;;;;;;;16.73;11.30;;;;;;;0.65;65.27;98025.78;1710206;83;21085;-41
2021/12/02 01:51:32;;;;;;;13.28;10.08;;;;;;;0.67;65.24;98033.47;1710231;83;21104;-42
2021/12/02 01:54:09;;;;;;;14.83;10.77;;;;;;;0.68;65.34;98035.00;1710379;83;21138;-41
2021/12/02 01:56:43;;;;;;;16.12;11.60;;;;;;;0.69;65.33;98040.02;1710186;83;21366;-41
2021/12/02 01:59:20;;;;;;;14.45;10.23;;;;;;;0.72;65.33;98038.05;1710070;83;20985;-41
2021/12/02 02:01:51;;;;;;;13.35;10.58;;;;;;;0.76;65.32;98029.63;1710050;83;21101;-41
2021/12/02 02:04:19;;;;;;;12.90;10.25;;;;;;;0.81;65.24;98032.64;1710123;83;21073;-41
2021/12/02 02:07:00;;;;;;;14.47;10.65;;;;;;;0.84;65.13;98033.31;1710118;83;21517;-41
2021/12/02 02:09:30;;;;;;;15.03;11.33;;;;;;;0.85;65.11;98026.87;1712996;83;21037;-41
2021/12/02 02:11:57;;;;;;;14.90;11.45;;;;;;;0.86;65.03;98027.89;1712838;83;21208;-41
2021/12/02 02:14:25;;;;;;;15.63;11.57;;;;;;;0.86;64.90;98019.10;1712828;83;21041;-41
2021/12/02 02:16:52;;;;;;;15.98;12.18;;;;;;;0.85;65.05;98017.53;1712943;83;21595;-41
2021/12/02 02:19:19;;;;;;;16.07;11.38;;;;;;;0.87;65.09;98015.33;1712833;83;21818;-41
2021/12/02 02:21:45;;;;;;;14.65;11.30;;;;;;;0.92;65.10;98012.43;1712923;83;20954;-41
2021/12/02 02:24:14;;;;;;;12.18;10.63;;;;;;;0.98;65.01;98015.67;1712728;83;21543;-41
2021/12/02 02:26:42;;;;;;;17.25;10.60;;;;;;;1.00;64.81;98022.81;1712814;83;20958;-41
2021/12/02 02:29:11;;;;;;;15.35;11.55;;;;;;;1.02;64.76;98012.02;1712952;83;21018;-41
2021/12/02 02:31:41;;;;;;;14.93;10.58;;;;;;;1.01;64.88;98008.36;1713135;83;21112;-41
2021/12/02 02:34:08;;;;;;;15.30;11.22;;;;;;;1.03;64.77;98006.91;1712902;83;20993;-41
2021/12/02 02:36:40;;;;;;;18.00;12.25;;;;;;;1.03;64.72;98010.91;1713171;83;20973;-41
2021/12/02 02:39:07;;;;;;;16.02;11.40;;;;;;;1.04;64.73;98005.81;1713046;83;21017;-41
2021/12/02 02:41:41;;;;;;;14.47;11.78;;;;;;;1.05;64.69;98000.70;1713085;83;21069;-41
2021/12/02 02:44:06;;;;;;;15.85;11.40;;;;;;;1.05;64.78;98000.70;1713077;83;21058;-42
2021/12/02 02:46:39;;;;;;;15.23;11.10;;;;;;;1.03;64.91;97997.57;1712960;83;21579;-41
2021/12/02 02:49:08;;;;;;;14.90;11.33;;;;;;;1.04;64.91;97993.80;1712922;83;20946;-41
2021/12/02 02:51:36;;;;;;;12.25;9.33;;;;;;;1.04;64.94;97987.13;1713122;83;21093;-41
2021/12/02 02:54:05;;;;;;;15.15;11.93;;;;;;;1.08;64.93;97988.02;1712925;83;21554;-41
2021/12/02 02:56:35;;;;;;;15.70;11.60;;;;;;;1.11;64.95;97995.39;1712764;83;21748;-41
2021/12/02 02:59:25;;;;;;;15.95;11.45;;;;;;;1.13;64.81;97998.49;1713005;83;20989;-41
2021/12/02 03:01:48;;;;;;;15.58;11.25;;;;;;;1.12;64.91;97990.25;1710810;83;21591;-41
2021/12/02 03:09:25;;;;;;;14.90;11.40;;;;;;;1.21;64.72;97983.51;1700191;83;21123;-41
2021/12/02 03:11:46;;;;;;;16.82;12.95;;;;;;;1.25;64.63;97980.39;1698588;84;21053;-41
2021/12/02 03:14:16;;;;;;;15.30;12.23;;;;;;;1.28;64.47;97973.83;1713093;83;21024;-41
2021/12/02 03:16:44;;;;;;;16.42;12.82;;;;;;;1.27;64.40;97970.93;1683974;85;21123;-41
2021/12/02 03:19:18;;;;;;;15.60;12.18;;;;;;;1.30;64.38;97958.27;1700268;84;21053;-41
2021/12/02 03:21:44;;;;;;;14.90;11.60;;;;;;;1.28;64.42;97960.48;1712315;83;21135;-40
2021/12/02 03:24:10;;;;;;;18.35;12.03;;;;;;;1.27;64.43;97951.46;1700329;84;20953;-40
2021/12/02 03:26:37;;;;;;;19.85;12.47;;;;;;;1.28;64.52;97946.35;1712887;83;21024;-40
2021/12/02 03:29:04;;;;;;;15.68;12.43;;;;;;;1.30;64.34;97938.80;1700607;84;21065;-41
2021/12/02 03:31:32;;;;;;;16.27;12.50;;;;;;;1.33;64.33;97940.02;1677370;84;21041;-41
2021/12/02 03:34:00;;;;;;;16.23;12.20;;;;;;;1.37;64.15;97936.34;1721455;83;21120;-41
2021/12/02 03:36:27;;;;;;;17.52;12.40;;;;;;;1.39;63.98;97934.69;1721638;83;21532;-41
2021/12/02 03:38:54;;;;;;;16.85;12.15;;;;;;;1.38;63.99;97926.44;1721501;83;21010;-40
2021/12/02 03:41:20;;;;;;;13.85;11.38;;;;;;;1.40;63.97;97933.02;1721143;83;21070;-40
2021/12/02 03:43:48;;;;;;;15.85;11.45;;;;;;;1.43;63.77;97917.66;1721394;83;21449;-40
2021/12/02 03:46:18;;;;;;;15.63;11.50;;;;;;;1.48;63.73;97921.44;1721524;83;21079;-41
2021/12/02 03:48:45;;;;;;;14.40;11.25;;;;;;;1.46;63.68;97916.98;1715181;83;21063;-41
2021/12/02 03:51:12;;;;;;;14.47;10.93;;;;;;;1.50;63.58;97923.20;1721285;83;21020;-40
2021/12/02 03:53:38;;;;;;;14.83;11.63;;;;;;;1.49;63.71;97906.20;1721124;83;21025;-41
2021/12/02 03:56:08;;;;;;;16.85;11.80;;;;;;;1.51;63.76;97919.42;1715723;83;21099;-40
2021/12/02 03:58:37;;;;;;;17.35;11.63;;;;;;;1.57;63.53;97901.29;1721324;83;21899;-40
2021/12/02 04:01:05;;;;;;;14.93;11.20;;;;;;;1.58;63.44;97900.18;1721150;83;21009;-41
2021/12/02 04:03:32;;;;;;;14.73;10.48;;;;;;;1.60;63.42;97893.92;1721468;83;22112;-41
2021/12/02 04:05:59;;;;;;;16.48;12.13;;;;;;;1.61;63.41;97896.27;1721230;83;20973;-40
2021/12/02 04:14:04;;;;;;;14.80;11.45;;;;;;;1.59;63.56;97894.52;1726617;83;21017;-40
2021/12/02 04:16:26;;;;;;;16.40;10.98;;;;;;;1.56;63.65;97884.48;1725947;82;21008;-41
2021/12/02 04:18:53;;;;;;;16.25;11.12;;;;;;;1.55;63.82;97892.27;1726723;82;21053;-41
2021/12/02 04:23:21;;;;;;;13.65;11.10;;;;;;;1.62;63.88;97903.73;1836245;78;22538;-41
2021/12/02 04:25:48;;;;;;;13.93;11.10;;;;;;;1.52;64.13;97906.85;1806272;79;20915;-40
2021/12/02 04:28:14;;;;;;;15.10;11.20;;;;;;;1.59;64.03;97901.74;1806190;79;21130;-40
2021/12/02 04:30:41;;;;;;;14.33;11.35;;;;;;;1.61;64.03;97903.50;1795140;79;20922;-40
2021/12/02 04:33:08;;;;;;;14.07;11.15;;;;;;;1.63;63.92;97906.63;1753249;81;20957;-40
2021/12/02 04:35:34;;;;;;;13.98;10.58;;;;;;;1.62;63.94;97900.51;1753240;81;21034;-40
2021/12/02 04:38:01;;;;;;;14.60;11.15;;;;;;;1.64;63.98;97903.63;1753261;81;20956;-40
2021/12/02 04:40:28;;;;;;;15.45;11.28;;;;;;;1.63;64.04;97889.27;1753279;81;21935;-41
2021/12/02 04:42:54;;;;;;;14.68;10.80;;;;;;;1.69;63.94;97873.23;1753207;81;20957;-40
2021/12/02 04:45:21;;;;;;;13.35;10.18;;;;;;;1.67;63.83;97868.22;1753067;81;21036;-40
2021/12/02 04:47:50;;;;;;;14.25;10.53;;;;;;;1.66;63.91;97865.88;1753267;81;21037;-40
2021/12/02 04:50:17;;;;;;;14.18;11.03;;;;;;;1.67;64.04;97863.44;1753302;81;21578;-40
2021/12/02 04:52:43;;;;;;;14.33;10.60;;;;;;;1.67;63.94;97863.44;1753067;81;21447;-40
2021/12/02 04:55:10;;;;;;;13.68;10.70;;;;;;;1.67;63.95;97850.08;1753072;81;21037;-40
2021/12/02 04:57:37;;;;;;;13.65;10.48;;;;;;;1.68;63.97;97851.64;1753042;81;20980;-40
2021/12/02 05:00:06;;;;;;;13.80;10.90;;;;;;;1.70;64.00;97852.84;1753240;81;21036;-41
2021/12/02 05:02:33;;;;;;;13.85;10.13;;;;;;;1.74;64.07;97854.30;1753566;81;21518;-40
2021/12/02 05:04:59;;;;;;;14.18;10.43;;;;;;;1.75;64.04;97854.50;1753200;81;21087;-40
2021/12/02 05:07:26;;;;;;;14.70;10.48;;;;;;;1.76;63.96;97848.05;1753598;81;21621;-40
2021/12/02 05:09:53;;;;;;;15.13;10.65;;;;;;;1.79;63.97;97863.42;1753223;81;21004;-44
2021/12/02 05:12:21;;;;;;;12.80;10.38;;;;;;;1.77;64.06;97864.30;1732116;81;21012;-40
2021/12/02 05:14:47;;;;;;;13.50;10.53;;;;;;;1.74;64.14;97853.72;1753298;81;21056;-40
2021/12/02 05:17:14;;;;;;;12.50;10.48;;;;;;;1.75;64.17;97845.16;1753469;81;21896;-40
2021/12/02 05:19:40;;;;;;;12.73;10.18;;;;;;;1.73;64.36;97842.06;1753213;81;20999;-40
2021/12/02 05:22:08;;;;;;;16.25;10.68;;;;;;;1.74;64.35;97849.72;1755072;81;20980;-40
2021/12/02 05:24:35;;;;;;;13.13;10.15;;;;;;;0.18;64.29;97611.38;1758667;81;21024;-40
2021/12/02 05:27:02;;;;;;;14.70;10.40;;;;;;;1.81;64.36;97869.19;1758760;81;21068;-40
2021/12/02 05:29:28;;;;;;;15.60;10.03;;;;;;;1.82;64.44;97872.09;1758693;81;21133;-40
2021/12/02 05:31:55;;;;;;;13.50;10.63;;;;;;;1.84;64.40;97867.16;1758709;80;20980;-40
2021/12/02 05:34:22;;;;;;;16.95;10.38;;;;;;;1.86;64.41;97866.84;1758284;81;21072;-40
2021/12/02 05:36:48;;;;;;;16.77;10.05;;;;;;;1.88;64.36;97872.64;1758601;81;21010;-40
2021/12/02 05:39:15;;;;;;;15.23;9.75;;;;;;;1.87;64.61;97873.19;1758257;81;21032;-40
2021/12/02 05:41:42;;;;;;;16.52;10.68;;;;;;;1.85;64.59;97875.41;1758474;81;21084;-40
2021/12/02 05:44:08;;;;;;;12.30;9.55;;;;;;;1.85;64.69;97879.42;1758459;81;20949;-41
2021/12/02 05:46:35;;;;;;;15.45;10.90;;;;;;;1.84;64.73;97883.20;1758316;81;21452;-40
2021/12/02 05:49:02;;;;;;;13.78;9.45;;;;;;;1.84;64.89;97877.10;1758170;81;21036;-40
2021/12/02 05:51:28;;;;;;;12.37;9.58;;;;;;;1.89;64.89;97874.20;1758722;81;21589;-40
2021/12/02 05:53:55;;;;;;;13.98;9.90;;;;;;;1.90;64.84;97867.71;1758152;81;21098;-40
2021/12/02 05:56:23;;;;;;;11.10;8.85;;;;;;;1.90;64.98;97876.52;1758117;81;21068;-40
2021/12/02 05:58:50;;;;;;;12.98;9.55;;;;;;;1.93;64.98;97877.74;1758763;81;20960;-40
2021/12/02 06:01:17;;;;;;;14.18;9.78;;;;;;;1.96;64.88;97879.17;1758373;81;20944;-41
2021/12/02 06:03:44;;;;;;;13.08;9.03;;;;;;;1.97;65.03;97874.61;1758233;81;20965;-41
2021/12/02 06:06:10;;;;;;;11.50;9.35;;;;;;;1.97;65.13;97875.95;1758268;81;21133;-41
2021/12/02 06:08:37;;;;;;;13.65;9.35;;;;;;;2.00;65.12;97877.38;1758263;81;20968;-41
2021/12/02 06:11:05;;;;;;;15.35;9.85;;;;;;;2.03;65.20;97880.70;1758413;81;20945;-40
2021/12/02 06:13:33;;;;;;;11.95;9.43;;;;;;;2.06;65.23;97884.60;1758053;81;20961;-40
2021/12/02 06:16:00;;;;;;;12.95;8.38;;;;;;;2.07;65.16;97877.59;1758469;81;21103;-40
2021/12/02 06:18:26;;;;;;;12.23;8.60;;;;;;;2.10;65.15;97872.89;1758126;81;21873;-40
2021/12/02 06:20:54;;;;;;;11.22;8.58;;;;;;;2.13;65.08;97871.45;1758247;81;20976;-40
2021/12/02 06:23:22;;;;;;;11.93;8.48;;;;;;;2.18;64.96;97867.95;1758032;81;21032;-40
2021/12/02 06:25:49;;;;;;;12.40;8.78;;;;;;;2.21;64.99;97864.39;1758261;81;20972;-40
2021/12/02 06:28:16;;;;;;;12.47;8.85;;;;;;;2.23;65.03;97885.64;1758387;81;21095;-40
2021/12/02 06:30:44;;;;;;;12.43;9.35;;;;;;;2.24;65.05;97871.72;1758207;80;21111;-40
2021/12/02 06:33:10;;;;;;;13.85;9.35;;;;;;;2.31;65.03;97866.58;1758113;81;20964;-40
2021/12/02 06:35:39;;;;;;;11.83;8.75;;;;;;;2.34;64.87;97867.22;1758117;81;20992;-41
2021/12/02 06:38:05;;;;;;;13.32;8.55;;;;;;;2.34;65.00;97865.33;1758205;81;21017;-40
2021/12/02 06:40:34;;;;;;;13.80;9.05;;;;;;;2.36;65.00;97862.32;1758276;81;21044;-40
2021/12/02 06:43:01;;;;;;;14.10;8.63;;;;;;;2.37;64.98;97862.55;1758194;81;21216;-40
2021/12/02 06:45:28;;;;;;;12.47;8.85;;;;;;;2.39;65.18;97866.98;1758139;81;20953;-40
2021/12/02 06:47:59;;;;;;;12.10;8.13;;;;;;;2.44;64.97;97860.83;1781455;78;20973;-40
2021/12/02 06:50:23;;;;;;;11.48;8.78;;;;;;;2.48;64.93;97862.25;1789060;79;20890;-40
2021/12/02 06:52:51;;;;;;;12.05;8.53;;;;;;;2.54;64.87;97872.92;1785729;78;21027;-40
2021/12/02 06:55:18;;;;;;;11.12;8.33;;;;;;;2.58;64.78;97871.11;1783263;80;21101;-40
2021/12/02 06:57:45;;;;;;;12.23;8.70;;;;;;;2.60;64.70;97868.88;1783250;80;20925;-40
2021/12/02 07:00:15;;;;;;;12.28;9.03;;;;;;;2.61;64.71;97861.08;1783601;79;21008;-40
2021/12/02 07:02:41;;;;;;;;;;;;;;;2.59;64.78;97865.98;1786007;80;20991;-54
2021/12/02 07:05:11;;;;;;;11.00;7.70;;;;;;;2.62;64.79;97869.30;1783547;80;20191;-41
2021/12/02 07:07:38;;;;;;;13.30;8.50;;;;;;;2.57;65.10;97857.52;1783624;80;21170;-41
2021/12/02 07:10:20;;;;;;;13.60;7.97;;;;;;;2.63;65.01;97862.84;1783370;79;21027;-48
2021/12/02 07:12:49;;;;;;;10.48;7.60;;;;;;;2.66;64.97;97868.86;1783535;80;21506;-40
2021/12/02 07:15:19;;;;;;;10.65;8.08;;;;;;;2.66;64.88;97860.83;1783649;79;20968;-40
2021/12/02 07:17:51;;;;;;;7.85;6.22;;;;;;;2.73;64.87;97852.97;1783521;80;21542;-40
2021/12/02 07:20:18;;;;;;;13.30;8.00;;;;;;;2.78;64.75;97856.73;1783457;80;21043;-41
2021/12/02 07:22:44;;;;;;;12.00;8.03;;;;;;;2.83;64.71;97859.15;1783118;79;21032;-41
2021/12/02 07:25:11;;;;;;;10.28;7.83;;;;;;;2.85;64.75;97861.48;1783275;79;21503;-41
2021/12/02 07:27:38;;;;;;;12.05;8.53;;;;;;;2.84;64.69;97854.02;1783217;80;21855;-41
2021/12/02 07:30:07;;;;;;;11.63;8.68;;;;;;;2.86;64.75;97861.13;1783285;80;21051;-41
2021/12/02 07:32:37;;;;;;;10.75;7.97;;;;;;;2.90;64.75;97862.02;1758447;80;21096;-41
2021/12/02 07:35:13;;;;;;;13.08;9.68;;;;;;;2.99;64.62;97865.85;1758485;81;20993;-41
2021/12/02 07:37:49;;;;;;;15.10;8.50;;;;;;;3.05;64.55;97858.53;1758121;81;20957;-42
2021/12/02 07:40:17;;;;;;;11.83;8.40;;;;;;;3.09;64.48;97862.66;1758469;81;21507;-41
2021/12/02 07:42:47;;;;;;;13.18;8.90;;;;;;;3.12;64.51;97860.61;1758182;81;21045;-42
2021/12/02 07:45:14;;;;;;;10.95;8.20;;;;;;;3.19;64.48;97869.39;1752562;80;21487;-41
2021/12/02 07:47:40;;;;;;;11.93;8.75;;;;;;;3.24;64.37;97874.48;1752108;81;21402;-41
2021/12/02 07:50:10;;;;;;;10.80;7.95;;;;;;;3.28;64.38;97867.30;1758510;81;20937;-41
2021/12/02 07:52:45;;;;;;;10.70;7.70;;;;;;;3.31;64.33;97871.95;1758239;81;21012;-41
2021/12/02 07:55:14;;;;;;;10.72;8.30;;;;;;;3.40;64.24;97874.66;1764469;78;21064;-41
2021/12/02 07:57:43;;;;;;;10.82;8.20;;;;;;;3.47;64.06;97865.46;1789365;79;21004;-42
2021/12/02 08:00:16;;;;;;;12.10;8.73;;;;;;;3.50;63.81;97875.47;1789594;80;20977;-42
2021/12/02 08:02:44;;;;;;;12.13;8.83;;;;;;;3.58;63.85;97875.08;1789291;79;20957;-42
2021/12/02 08:05:12;;;;;;;9.95;7.78;;;;;;;3.60;63.77;97870.13;1789571;79;21004;-42
2021/12/02 08:07:39;;;;;;;12.10;8.48;;;;;;;3.63;63.85;97864.66;1789606;80;21546;-41
2021/12/02 08:10:09;;;;;;;13.43;8.60;;;;;;;3.69;63.80;97874.73;1789534;79;20970;-42
2021/12/02 08:12:37;;;;;;;11.50;7.92;;;;;;;3.75;63.64;97867.98;1789483;79;21487;-41
2021/12/02 08:15:08;;;;;;;11.33;8.05;;;;;;;3.84;63.49;97875.25;1789847;79;20965;-42
2021/12/02 08:17:35;;;;;;;13.22;8.58;;;;;;;3.93;63.38;97883.87;1789484;79;21530;-42
2021/12/02 08:20:03;;;;;;;10.68;8.20;;;;;;;3.95;63.31;97883.52;1789654;80;21088;-42
2021/12/02 08:22:31;;;;;;;10.38;8.28;;;;;;;3.97;63.35;97891.98;1787292;79;21105;-41
2021/12/02 08:24:59;;;;;;;12.50;9.30;;;;;;;3.94;63.31;97891.35;1772906;81;20997;-42
2021/12/02 08:27:25;;;;;;;13.25;8.50;;;;;;;3.93;63.57;97899.95;1772742;81;20957;-41
2021/12/02 08:29:52;;;;;;;12.37;8.53;;;;;;;3.92;63.54;97898.39;1772698;81;21025;-41
2021/12/02 08:32:19;;;;;;;12.30;8.75;;;;;;;3.90;63.65;97893.96;1772892;81;21049;-41
2021/12/02 08:34:45;;;;;;;11.53;8.10;;;;;;;3.89;63.85;97896.42;1772815;80;21756;-41
2021/12/02 08:37:13;;;;;;;12.98;8.40;;;;;;;3.91;63.86;97898.77;1772642;81;21061;-42
2021/12/02 08:39:41;;;;;;;10.90;8.00;;;;;;;3.96;63.85;97883.75;1759807;81;21733;-42
2021/12/02 08:42:09;;;;;;;11.38;8.35;;;;;;;4.01;63.84;97900.12;1772858;79;21603;-41
2021/12/02 08:44:40;;;;;;;12.70;7.70;;;;;;;4.01;63.93;97887.49;1772747;81;21064;-41
2021/12/02 08:47:06;;;;;;;11.97;8.25;;;;;;;4.01;64.04;97884.03;1772652;80;21822;-41
2021/12/02 08:49:33;;;;;;;10.63;8.23;;;;;;;3.99;64.30;97882.25;1772738;81;21067;-41
2021/12/02 08:51:59;;;;;;;15.38;9.00;;;;;;;3.99;64.41;97896.44;1772740;79;21017;-41
2021/12/02 08:54:27;;;;;;;10.95;8.23;;;;;;;3.97;64.42;97888.55;1772796;79;20985;-42
2021/12/02 08:56:58;;;;;;;12.10;7.65;;;;;;;3.96;64.60;97894.47;1758568;81;21032;-43
2021/12/02 08:59:25;;;;;;;12.93;7.95;;;;;;;3.98;64.71;97878.01;1772847;81;21500;-42
2021/12/02 09:01:52;;;;;;;11.22;7.62;;;;;;;4.04;64.80;97881.97;1772772;81;20914;-42
2021/12/02 09:04:19;;;;;;;12.40;8.40;;;;;;;4.04;64.69;97885.44;1772954;81;20997;-43
2021/12/02 09:06:46;;;;;;;14.43;8.58;;;;;;;4.06;64.79;97890.45;1772714;81;21489;-43
2021/12/02 09:09:12;;;;;;;11.35;8.05;;;;;;;4.06;64.81;97893.14;1773127;79;21516;-42
2021/12/02 09:11:39;;;;;;;12.23;8.10;;;;;;;4.05;64.83;97884.88;1772815;81;21132;-42
2021/12/02 09:14:06;;;;;;;12.05;8.68;;;;;;;4.03;64.86;97877.73;1772846;81;20961;-42
2021/12/02 09:16:33;;;;;;;15.03;9.18;;;;;;;4.01;65.01;97878.67;1772773;79;20977;-43
2021/12/02 09:19:00;;;;;;;10.75;8.15;;;;;;;4.04;65.16;97874.71;1766413;81;20934;-42
2021/12/02 09:21:28;;;;;;;12.60;8.38;;;;;;;4.11;65.06;97868.73;1766721;81;21016;-40
2021/12/02 09:23:54;;;;;;;12.40;8.55;;;;;;;4.19;64.97;97873.09;1766778;79;21118;-40
2021/12/02 09:26:22;;;;;;;12.03;8.90;;;;;;;4.22;64.97;97871.03;1766664;81;21555;-41
2021/12/02 09:28:53;;;;;;;15.70;8.65;;;;;;;4.26;65.07;97875.92;1766696;81;21015;-40
2021/12/02 09:31:21;;;;;;;15.08;9.13;;;;;;;4.29;64.87;97871.97;1755124;81;21033;-40
2021/12/02 09:33:47;;;;;;;13.25;9.00;;;;;;;4.31;64.85;97874.27;1742720;81;21072;-40
2021/12/02 09:36:15;;;;;;;16.95;10.08;;;;;;;4.32;64.95;97861.86;1742519;82;21600;-40
2021/12/02 09:38:42;;;;;;;14.53;8.53;;;;;;;4.34;65.00;97864.97;1742279;81;20942;-40
2021/12/02 09:41:09;;;;;;;11.80;8.90;;;;;;;4.33;64.96;97863.98;1742763;82;21450;-40
2021/12/02 09:43:36;;;;;;;14.35;9.00;;;;;;;4.34;65.05;97869.00;1742441;82;21010;-40
2021/12/02 09:46:02;;;;;;;18.57;11.85;;;;;;;4.42;64.95;97869.89;1742542;82;21575;-40
2021/12/02 09:48:29;;;;;;;15.53;10.45;;;;;;;4.45;64.87;97868.42;1742424;82;21862;-40
2021/12/02 09:51:09;;;;;;;13.83;9.93;;;;;;;4.44;65.02;97869.55;1742328;81;20970;-40
2021/12/02 09:53:35;;;;;;;14.85;9.30;;;;;;;4.44;65.12;97864.97;1742075;81;21040;-40
2021/12/02 09:56:18;;;;;;;14.68;9.68;;;;;;;4.46;65.23;97860.00;1742066;81;21045;-40
2021/12/02 09:58:42;;;;;;;13.90;9.03;;;;;;;4.47;65.07;97863.47;1742124;81;21531;-40
2021/12/02 10:01:12;;;;;;;14.68;10.50;;;;;;;4.44;65.31;97864.97;1742319;82;21170;-40
2021/12/02 10:03:39;;;;;;;12.47;8.98;;;;;;;4.48;65.36;97854.29;1742327;81;20902;-40
2021/12/02 10:06:12;;;;;;;15.23;9.45;;;;;;;4.53;65.37;97856.69;1742265;82;21009;-40
2021/12/02 10:09:08;;;;;;;12.07;9.00;;;;;;;4.58;65.40;97851.80;1742270;82;21111;-40
2021/12/02 10:11:15;;;;;;;13.62;10.32;;;;;;;4.62;65.52;97849.17;1738904;82;21045;-40
2021/12/02 10:16:27;;;;;;;18.27;12.85;;;;;;;4.68;65.75;97852.56;1742193;82;21046;-40
2021/12/02 10:18:58;;;;;;;15.45;11.45;;;;;;;4.71;65.75;97851.84;1736737;81;20930;-41
2021/12/02 10:21:34;;;;;;;11.97;8.93;;;;;;;4.77;65.62;97848.30;1742368;81;21485;-41
2021/12/02 10:24:01;;;;;;;13.28;8.78;;;;;;;4.86;65.59;97852.08;1741737;81;21065;-41
2021/12/02 10:26:27;;;;;;;13.28;9.30;;;;;;;4.96;65.33;97848.80;1742253;82;21160;-41
2021/12/02 10:28:54;;;;;;;13.70;10.80;;;;;;;5.03;65.08;97838.19;1742176;82;21048;-40
2021/12/02 10:31:25;;;;;;;13.32;9.15;;;;;;;5.07;65.09;97841.70;1742395;81;21523;-40
2021/12/02 10:33:57;;;;;;;14.10;9.88;;;;;;;5.11;65.18;97839.84;1742233;81;21085;-41
2021/12/02 10:36:37;;;;;;;12.28;10.08;;;;;;;5.14;65.04;97840.45;1742322;82;21045;-40
2021/12/02 10:39:16;;;;;;;13.83;9.58;;;;;;;5.15;65.14;97839.32;1742491;82;21126;-41
2021/12/02 10:41:46;;;;;;;12.28;8.88;;;;;;;5.17;65.21;97837.84;1742524;82;21040;-41
2021/12/02 10:44:23;;;;;;;12.60;8.23;;;;;;;5.18;64.81;97842.05;1742493;81;21000;-41
2021/12/02 10:47:06;;;;;;;11.20;8.35;;;;;;;5.23;64.85;97829.66;1736310;82;21033;-41
2021/12/02 10:49:48;;;;;;;10.60;7.95;;;;;;;5.28;64.84;97834.55;1742371;81;20993;-40
2021/12/02 10:52:17;;;;;;;12.98;8.25;;;;;;;5.30;64.92;97830.34;1742395;82;21111;-41
2021/12/02 10:54:48;;;;;;;12.88;8.85;;;;;;;5.31;64.79;97821.72;1742655;82;21024;-41
2021/12/02 10:57:20;;;;;;;9.73;7.25;;;;;;;5.31;64.90;97824.41;1742347;81;20942;-41
2021/12/02 10:59:57;;;;;;;11.10;8.40;;;;;;;5.31;64.86;97809.62;1742367;82;21503;-40
2021/12/02 11:02:35;;;;;;;10.48;7.65;;;;;;;5.30;64.79;97812.88;1742125;81;21014;-40
2021/12/02 11:05:22;;;;;;;10.10;6.85;;;;;;;5.33;64.91;97805.43;1742222;82;21997;-40
2021/12/02 11:07:56;;;;;;;10.93;7.70;;;;;;;5.48;64.87;97799.69;1742102;82;20966;-41
2021/12/02 11:10:24;;;;;;;11.38;7.72;;;;;;;5.72;64.58;97806.52;1742227;81;21017;-41
2021/12/02 11:12:53;;;;;;;14.15;9.08;;;;;;;5.88;63.66;97797.73;1742246;82;21539;-41
2021/12/02 11:15:22;;;;;;;;;;;;;;;5.92;63.52;97791.83;1745172;81;21065;-40
2021/12/02 11:18:11;;;;;;;12.53;8.20;;;;;;;5.93;63.02;97793.39;1742395;82;21107;-41
2021/12/02 11:20:50;;;;;;;10.68;7.25;;;;;;;5.81;63.53;97785.54;1742073;82;20934;-41
2021/12/02 11:23:20;;;;;;;12.78;8.23;;;;;;;5.79;63.58;97800.69;1742275;82;21018;-41
2021/12/02 11:25:57;;;;;;;11.95;7.33;;;;;;;5.76;63.82;97806.03;1742362;81;21033;-41
2021/12/02 11:28:27;;;;;;;11.33;7.25;;;;;;;5.72;63.94;97797.89;1742239;82;20981;-41
2021/12/02 11:30:57;;;;;;;13.68;7.05;;;;;;;5.70;64.17;97784.06;1742358;81;21827;-41
2021/12/02 11:33:32;;;;;;;9.38;6.90;;;;;;;5.71;64.15;97782.92;1757911;79;20930;-41
2021/12/02 11:35:59;;;;;;;12.93;7.12;;;;;;;5.71;64.13;97784.84;1772789;81;21080;-41
2021/12/02 11:38:27;;;;;;;9.78;6.83;;;;;;;5.70;64.12;97793.47;1772704;79;21024;-41
2021/12/02 11:41:02;;;;;;;11.03;7.12;;;;;;;5.69;64.25;97787.88;1773078;79;21746;-41
2021/12/02 11:43:34;;;;;;;11.70;6.87;;;;;;;5.67;64.32;97788.23;1773163;79;21779;-41
2021/12/02 11:46:02;;;;;;;13.80;7.42;;;;;;;5.63;64.38;97784.73;1772769;80;20962;-41
2021/12/02 11:48:33;;;;;;;10.55;6.95;;;;;;;5.60;64.45;97785.47;1773007;79;20949;-42
2021/12/02 11:51:02;;;;;;;8.95;6.75;;;;;;;5.61;64.56;97784.34;1772791;80;21540;-41
2021/12/02 11:53:29;;;;;;;12.85;7.70;;;;;;;5.63;64.60;97779.92;1773004;81;21022;-41
2021/12/02 11:56:02;;;;;;;10.48;7.17;;;;;;;5.67;64.60;97784.20;1772731;79;20972;-41
2021/12/02 11:58:29;;;;;;;9.35;6.83;;;;;;;5.67;64.56;97780.17;1772818;81;21499;-41